Current Weather

Nnamdi Azikiwe Intl

Nnamdi Azikiwe Intl, Nigeria (DNAA)

Report from: Monday, February 6, 2023 5:00 AM UTC
Current time: Monday, February 6, 2023 5:57 AM UTC

Nearby weather
Weather history
Weather forecast

Temperature23.0°C (73.4°F)
Dew point11.0°C (51.8°F)
Winds 6 kts (3.1 m/s, 6.9 mph) East-Northeast (70°)
Clouds Sky clear
Altimeter29.85 in.Hg (1011 mB)
Relative humidity47 %
Density altitude1,192 ft. (363 m)
Remarks Ceiling and visibility OK
No significant changes expected in the next two hours
Flight conditions Visual Meteorological Conditions
Raw dataDNAA 060500Z 07006KT CAVOK 23/11 Q1011 NOSIG
An error has occurred. This application may no longer respond until reloaded. Reload 🗙